createdAt,value
2024-04-18T00:02:23.434Z,96320.66
2024-04-18T00:04:50.419Z,96316.97
2024-04-18T00:07:19.828Z,96312.47
2024-04-18T00:09:46.655Z,96319.19
2024-04-18T00:12:16.091Z,96327.34
2024-04-18T00:14:42.833Z,96320.59
2024-04-18T00:17:14.841Z,96313.09
2024-04-18T00:19:41.591Z,96312.47
2024-04-18T00:22:10.910Z,96314.91
2024-04-18T00:24:37.730Z,96311.44
2024-04-18T00:27:07.452Z,96314.28
2024-04-18T00:29:36.647Z,96309.78
2024-04-18T00:32:06.356Z,96308.97
2024-04-18T00:34:35.854Z,96307.06
2024-04-18T00:37:05.252Z,96312.63
2024-04-18T00:39:32.188Z,96307.50
2024-04-18T00:42:01.602Z,96311.78
2024-04-18T00:44:28.528Z,96315.50
2024-04-18T00:46:58.926Z,96314.88
2024-04-18T00:49:26.012Z,96323.31
2024-04-18T00:51:58.674Z,96320.59
2024-04-18T00:54:25.568Z,96324.69
2024-04-18T00:56:54.978Z,96322.03
2024-04-18T00:59:21.747Z,96322.28
2024-04-18T01:01:51.433Z,96329.00
2024-04-18T01:04:18.519Z,96325.31
2024-04-18T01:06:49.035Z,96324.88
2024-04-18T01:09:18.607Z,96327.78
2024-04-18T01:11:47.995Z,96323.91
2024-04-18T01:14:14.787Z,96322.88
2024-04-18T01:16:44.097Z,96315.38
2024-04-18T01:19:17.507Z,96319.06
2024-04-18T01:21:46.891Z,96323.41
2024-04-18T01:24:14.048Z,96315.91
2024-04-18T01:26:46.016Z,96332.66
2024-04-18T01:29:12.786Z,96331.22
2024-04-18T01:31:42.134Z,96334.28
2024-04-18T01:34:09.142Z,96330.22
2024-04-18T01:36:38.578Z,96331.88
2024-04-18T01:39:05.384Z,96328.38
2024-04-18T01:41:34.740Z,96330.78
2024-04-18T01:44:04.645Z,96329.38
2024-04-18T01:46:33.986Z,96333.22
2024-04-18T01:49:00.910Z,96331.38
2024-04-18T01:51:30.312Z,96329.75
2024-04-18T01:53:57.070Z,96331.19
2024-04-18T01:56:26.588Z,96339.16
2024-04-18T01:58:53.344Z,96325.50
2024-04-18T02:01:30.845Z,96327.53
2024-04-18T02:03:57.738Z,96329.56
2024-04-18T02:06:27.188Z,96335.06
2024-04-18T02:08:54.384Z,96334.47
2024-04-18T02:11:23.726Z,96336.34
2024-04-18T02:13:50.510Z,96334.47
2024-04-18T02:16:19.834Z,96337.53
2024-04-18T02:18:49.584Z,96329.16
2024-04-18T02:21:19.101Z,96338.16
2024-04-18T02:23:45.867Z,96337.91
2024-04-18T02:26:15.466Z,96337.72
2024-04-18T02:28:42.215Z,96337.72
2024-04-18T02:31:11.586Z,96335.88
2024-04-18T02:33:38.391Z,96336.69
2024-04-18T02:36:10.707Z,96342.19
2024-04-18T02:38:37.500Z,96343.84
2024-04-18T02:41:07.819Z,96344.44
2024-04-18T02:43:34.611Z,96359.56
2024-04-18T02:46:04.038Z,96344.44
2024-04-18T02:48:31.385Z,96345.47
2024-04-18T02:51:00.842Z,96349.56
2024-04-18T02:53:30.228Z,96345.06
2024-04-18T02:55:59.584Z,96352.00
2024-04-18T02:58:26.357Z,96349.16
2024-04-18T03:00:55.805Z,96349.94
2024-04-18T03:03:22.591Z,96347.91
2024-04-18T03:05:51.947Z,96350.34
2024-04-18T03:08:18.783Z,96352.59
2024-04-18T03:10:56.482Z,96351.34
2024-04-18T03:13:23.351Z,96354.00
2024-04-18T03:15:52.701Z,96352.78
2024-04-18T03:18:19.599Z,96357.25
2024-04-18T03:20:55.232Z,96351.56
2024-04-18T03:23:22.176Z,96356.22
2024-04-18T03:25:52.217Z,96355.44
2024-04-18T03:28:21.759Z,96358.66
2024-04-18T03:30:51.254Z,96364.38
2024-04-18T03:33:18.228Z,96358.84
2024-04-18T03:35:47.616Z,96364.97
2024-04-18T03:38:17.452Z,96363.38
2024-04-18T03:40:57.395Z,96369.28
2024-04-18T03:43:29.446Z,96368.06
2024-04-18T03:46:00.666Z,96364.81
2024-04-18T03:48:27.496Z,96368.06
2024-04-18T03:50:56.910Z,96367.22
2024-04-18T03:53:23.817Z,96373.56
2024-04-18T03:55:53.156Z,96379.06
2024-04-18T03:58:19.913Z,96373.56
2024-04-18T04:00:52.775Z,96381.06
2024-04-18T04:03:20.779Z,96384.38
2024-04-18T04:05:51.118Z,96386.00
2024-04-18T04:08:18.126Z,96391.50
2024-04-18T04:10:47.482Z,96387.41
2024-04-18T04:13:14.544Z,96386.81
2024-04-18T04:15:43.972Z,96387.00
2024-04-18T04:18:13.399Z,96398.81
2024-04-18T04:20:42.808Z,96393.28
2024-04-18T04:23:09.677Z,96396.31
2024-04-18T04:25:39.151Z,96401.00
2024-04-18T04:28:06.047Z,96404.13
2024-04-18T04:30:35.416Z,96417.00
2024-04-18T04:33:02.267Z,96414.53
2024-04-18T04:35:34.286Z,96429.47
2024-04-18T04:38:01.668Z,96422.09
2024-04-18T04:40:31.030Z,96425.41
2024-04-18T04:43:00.471Z,96431.97
2024-04-18T04:45:30.149Z,96433.78
2024-04-18T04:47:56.988Z,96440.09
2024-04-18T04:50:26.454Z,96442.53
2024-04-18T04:52:55.806Z,96443.19
2024-04-18T04:55:25.183Z,96431.72
2024-04-18T04:57:51.975Z,96436.84
2024-04-18T05:00:21.432Z,96441.94
2024-04-18T05:02:49.948Z,96451.34
2024-04-18T05:05:19.452Z,96452.31
2024-04-18T05:07:46.337Z,96448.63
2024-04-18T05:10:18.467Z,96449.84
2024-04-18T05:12:45.248Z,96457.81
2024-04-18T05:15:14.695Z,96450.44
2024-04-18T05:17:41.453Z,96459.84
2024-04-18T05:20:11.497Z,96460.03
2024-04-18T05:22:38.140Z,96462.44
2024-04-18T05:25:10.578Z,96460.81
2024-04-18T05:27:46.232Z,96461.22
2024-04-18T05:30:32.093Z,96468.94
2024-04-18T05:33:01.539Z,96461.59
2024-04-18T05:35:30.895Z,96469.97
2024-04-18T05:38:00.287Z,96469.75
2024-04-18T05:40:29.872Z,96464.84
2024-04-18T05:43:01.846Z,96480.81
2024-04-18T05:45:31.241Z,96472.03
2024-04-18T05:48:00.688Z,96475.47
2024-04-18T05:50:30.230Z,96488.09
2024-04-18T05:52:56.947Z,96479.88
2024-04-18T05:55:26.383Z,96485.84
2024-04-18T05:57:55.794Z,96484.47
2024-04-18T06:00:27.812Z,96488.50
2024-04-18T06:02:57.166Z,96493.53
2024-04-18T06:05:26.524Z,96501.16
2024-04-18T06:07:56.127Z,96496.25
2024-04-18T06:10:25.522Z,96511.53
2024-04-18T06:12:54.896Z,96505.59
2024-04-18T06:15:26.916Z,96500.69
2024-04-18T06:17:53.810Z,96505.19
2024-04-18T06:20:23.417Z,96510.03
2024-04-18T06:22:52.767Z,96513.09
2024-04-18T06:25:22.184Z,96510.56
2024-04-18T06:27:51.653Z,96512.63
2024-04-18T06:30:21.304Z,96527.34
2024-04-18T06:32:53.312Z,96527.53
2024-04-18T06:35:22.691Z,96525.06
2024-04-18T06:37:52.003Z,96530.78
2024-04-18T06:40:24.613Z,96527.09
2024-04-18T06:42:55.045Z,96539.50
2024-04-18T06:45:26.333Z,96543.00
2024-04-18T06:47:58.717Z,96537.69
2024-04-18T06:50:30.156Z,96546.25
2024-04-18T06:52:59.540Z,96549.94
2024-04-18T06:55:28.927Z,96552.78
2024-04-18T06:57:58.692Z,96556.91
2024-04-18T07:00:28.400Z,96557.72
2024-04-18T07:03:00.561Z,96559.75
2024-04-18T07:05:27.519Z,96559.09
2024-04-18T07:07:57.254Z,96562.59
2024-04-18T07:10:26.707Z,96570.94
2024-04-18T07:12:56.046Z,96566.41
2024-04-18T07:15:25.596Z,96567.94
2024-04-18T07:17:57.358Z,96562.69
2024-04-18T07:20:29.459Z,96569.81
2024-04-18T07:22:59.023Z,96573.03
2024-04-18T07:25:25.795Z,96575.72
2024-04-18T07:27:55.786Z,96570.75
2024-04-18T07:30:25.245Z,96571.63
2024-04-18T07:32:54.669Z,96578.38
2024-04-18T07:35:24.591Z,96577.53
2024-04-18T07:37:56.431Z,96581.50
2024-04-18T07:40:25.791Z,96577.50
2024-04-18T07:42:55.261Z,96588.56
2024-04-18T07:45:24.867Z,96582.31
2024-04-18T07:47:54.399Z,96584.66
2024-04-18T07:50:23.861Z,96584.66
2024-04-18T07:53:03.730Z,96582.78
2024-04-18T07:55:38.769Z,96587.16
2024-04-18T07:58:08.668Z,96597.16
2024-04-18T08:00:39.658Z,96590.91
2024-04-18T08:03:11.630Z,96611.31
2024-04-18T08:05:43.826Z,96607.06
2024-04-18T08:08:20.115Z,96609.69
2024-04-18T08:11:08.430Z,96613.00
2024-04-18T08:13:43.137Z,96616.31
2024-04-18T08:16:15.666Z,96620.84
2024-04-18T08:18:45.749Z,96624.97
2024-04-18T08:21:15.219Z,96627.84
2024-04-18T08:23:52.743Z,96625.78
2024-04-18T08:26:22.314Z,96631.50
2024-04-18T08:28:51.676Z,96640.91
2024-04-18T08:31:21.057Z,96637.59
2024-04-18T08:33:58.226Z,96647.75
2024-04-18T08:36:32.320Z,96642.34
2024-04-18T08:39:04.429Z,96643.59
2024-04-18T08:41:38.310Z,96646.91
2024-04-18T08:44:10.070Z,96647.94
2024-04-18T08:46:40.222Z,96651.25
2024-04-18T08:49:11.573Z,96655.66
2024-04-18T08:51:41.921Z,96662.00
2024-04-18T08:54:14.038Z,96660.47
2024-04-18T08:56:49.679Z,96657.31
2024-04-18T08:59:19.522Z,96661.94
2024-04-18T09:01:49.757Z,96660.41
2024-04-18T09:04:19.163Z,96647.59
2024-04-18T09:06:48.524Z,96655.50
2024-04-18T09:09:20.694Z,96661.16
2024-04-18T09:11:50.066Z,96661.38
2024-04-18T09:14:19.434Z,96660.00
2024-04-18T09:16:48.766Z,96664.69
2024-04-18T09:19:18.318Z,96664.38
2024-04-18T09:21:48.121Z,96674.66
2024-04-18T09:24:20.373Z,96680.31
2024-04-18T09:26:49.937Z,96676.25
2024-04-18T09:29:19.268Z,96674.25
2024-04-18T09:31:49.283Z,96682.50
2024-04-18T09:34:18.987Z,96690.81
2024-04-18T09:36:49.341Z,96700.88
2024-04-18T09:39:26.673Z,96696.13
2024-04-18T09:42:03.894Z,96703.97
2024-04-18T09:44:35.165Z,96709.56
2024-04-18T09:47:04.616Z,96705.75
2024-04-18T09:49:34.748Z,96707.22
2024-04-18T09:52:04.692Z,96712.16
2024-04-18T09:54:36.787Z,96708.69
2024-04-18T09:57:07.653Z,96702.16
2024-04-18T09:59:34.966Z,96705.84
2024-04-18T10:02:06.114Z,96687.69
2024-04-18T10:04:35.775Z,96707.69
2024-04-18T10:07:05.540Z,96706.03
2024-04-18T10:09:38.761Z,96701.50
2024-04-18T10:12:09.921Z,96703.13
2024-04-18T10:14:37.190Z,96708.22
2024-04-18T10:17:08.682Z,96708.66
2024-04-18T10:19:38.088Z,96704.50
2024-04-18T10:22:23.305Z,96707.56
2024-04-18T10:25:01.599Z,96709.13
2024-04-18T10:27:30.985Z,96699.81
2024-04-18T10:30:03.104Z,96700.06
2024-04-18T10:32:33.895Z,96695.56
2024-04-18T10:35:03.430Z,96714.41
2024-04-18T10:37:32.826Z,96713.56
2024-04-18T10:40:07.871Z,96704.69
2024-04-18T10:42:40.770Z,96701.75
2024-04-18T10:45:11.707Z,96703.06
2024-04-18T10:47:42.453Z,96703.69
2024-04-18T10:50:12.508Z,96683.50
2024-04-18T10:52:41.840Z,96688.59
2024-04-18T10:55:13.826Z,96686.00
2024-04-18T10:57:40.663Z,96694.34
2024-04-18T11:00:11.081Z,96692.41
2024-04-18T11:02:40.515Z,96696.88
2024-04-18T11:05:12.235Z,96691.19
2024-04-18T11:07:42.378Z,96689.31
2024-04-18T11:10:15.378Z,96703.41
2024-04-18T11:12:44.912Z,96693.75
2024-04-18T11:15:14.326Z,96691.31
2024-04-18T11:17:43.800Z,96698.56
2024-04-18T11:20:14.110Z,96721.44
2024-04-18T11:22:42.982Z,96745.75
2024-04-18T11:25:18.434Z,96751.53
2024-04-18T11:27:47.830Z,96753.47
2024-04-18T11:30:20.085Z,96766.94
2024-04-18T11:32:55.891Z,96763.56
2024-04-18T11:35:25.510Z,96762.78
2024-04-18T11:37:52.462Z,96766.50
2024-04-18T11:40:24.692Z,96767.09
2024-04-18T11:42:54.179Z,96769.56
2024-04-18T11:45:23.682Z,96773.28
2024-04-18T11:47:59.325Z,96773.69
2024-04-18T11:50:29.052Z,96786.16
2024-04-18T11:52:58.599Z,96780.00
2024-04-18T11:55:30.742Z,96792.28
2024-04-18T11:58:00.065Z,96786.97
2024-04-18T12:00:29.707Z,96790.88
2024-04-18T12:02:59.324Z,96779.41
2024-04-18T12:05:28.958Z,96787.16
2024-04-18T12:07:58.322Z,96785.72
2024-04-18T12:10:30.380Z,96788.16
2024-04-18T12:12:59.731Z,96794.94
2024-04-18T12:15:29.109Z,96786.56
2024-04-18T12:17:59.281Z,96786.13
2024-04-18T12:20:28.729Z,96785.91
2024-04-18T12:22:58.171Z,96789.56
2024-04-18T12:25:30.122Z,96789.56
2024-04-18T12:27:59.476Z,96791.19
2024-04-18T12:30:30.413Z,96795.50
2024-04-18T12:33:00.247Z,96792.44
2024-04-18T12:35:29.690Z,96797.13
2024-04-18T12:37:59.054Z,96799.56
2024-04-18T12:40:31.036Z,96796.47
2024-04-18T12:43:00.391Z,96795.38
2024-04-18T12:45:29.803Z,96797.50
2024-04-18T12:48:01.582Z,96796.97
2024-04-18T12:50:31.316Z,96789.25
2024-04-18T12:53:00.710Z,96785.97
2024-04-18T12:55:32.714Z,96781.56
2024-04-18T12:58:02.609Z,96781.41
2024-04-18T13:00:31.960Z,96752.81
2024-04-18T13:03:01.527Z,96775.72
2024-04-18T13:05:31.084Z,96776.88
2024-04-18T13:08:00.484Z,96771.50
2024-04-18T13:10:32.448Z,96773.47
2024-04-18T13:13:01.826Z,96771.13
2024-04-18T13:15:31.195Z,96775.13
2024-04-18T13:18:00.570Z,96779.53
2024-04-18T13:20:30.343Z,96775.91
2024-04-18T13:22:59.530Z,96779.97
2024-04-18T13:25:28.921Z,96779.66
2024-04-18T13:28:00.908Z,96779.75
2024-04-18T13:30:27.989Z,96783.72
2024-04-18T13:32:57.428Z,96779.06
2024-04-18T13:35:27.489Z,96779.16
2024-04-18T13:37:58.393Z,96775.09
2024-04-18T13:40:27.748Z,96775.19
2024-04-18T13:42:57.362Z,96784.34
2024-04-18T13:45:29.475Z,96779.13
2024-04-18T13:47:59.037Z,96784.06
2024-04-18T13:50:31.200Z,96789.13
2024-04-18T13:53:00.602Z,96794.13
2024-04-18T13:55:29.985Z,96795.38
2024-04-18T13:58:00.039Z,96791.94
2024-04-18T14:00:32.802Z,96801.53
2024-04-18T14:03:02.463Z,96795.38
2024-04-18T14:05:31.965Z,96795.97
2024-04-18T14:08:01.292Z,96798.13
2024-04-18T14:10:30.649Z,96793.38
2024-04-18T14:12:59.995Z,96776.69
2024-04-18T14:15:37.532Z,96798.19
2024-04-18T14:18:24.061Z,96798.63
2024-04-18T14:20:55.200Z,96800.03
2024-04-18T14:23:24.647Z,96799.19
2024-04-18T14:25:55.978Z,96803.31
2024-04-18T14:28:31.706Z,96799.22
2024-04-18T14:31:05.535Z,96793.22
2024-04-18T14:33:35.042Z,96817.91
2024-04-18T14:36:04.487Z,96816.47
2024-04-18T14:38:33.863Z,96822.06
2024-04-18T14:41:09.869Z,96823.88
2024-04-18T14:43:41.781Z,96830.56
2024-04-18T14:46:13.834Z,96840.56
2024-04-18T14:48:43.278Z,96828.69
2024-04-18T14:51:12.801Z,96801.34
2024-04-18T14:53:42.213Z,96789.91
2024-04-18T14:56:11.550Z,96777.84
2024-04-18T14:58:42.090Z,96763.31
2024-04-18T15:01:14.180Z,96776.75
2024-04-18T15:03:43.676Z,96776.75
2024-04-18T15:06:13.628Z,96784.16
2024-04-18T15:08:43.628Z,96791.28
2024-04-18T15:11:13.304Z,96794.66
2024-04-18T15:13:43.071Z,96798.63
2024-04-18T15:16:15.729Z,96799.13
2024-04-18T15:18:45.208Z,96807.69
2024-04-18T15:21:14.658Z,96795.97
2024-04-18T15:23:44.010Z,96804.03
2024-04-18T15:26:15.121Z,96792.00
2024-04-18T15:28:44.477Z,96792.72
2024-04-18T15:31:16.864Z,96787.69
2024-04-18T15:33:46.261Z,96797.06
2024-04-18T15:36:15.696Z,96798.88
2024-04-18T15:38:45.036Z,96800.34
2024-04-18T15:41:14.428Z,96798.56
2024-04-18T15:43:43.987Z,96801.22
2024-04-18T15:46:16.124Z,96804.94
2024-04-18T15:48:45.511Z,96807.41
2024-04-18T15:51:14.935Z,96809.19
2024-04-18T15:53:44.369Z,96815.47
2024-04-18T15:56:15.875Z,96811.50
2024-04-18T15:58:43.934Z,96815.66
2024-04-18T16:01:15.836Z,96820.47
2024-04-18T16:03:45.287Z,96818.69
2024-04-18T16:06:14.692Z,96827.13
2024-04-18T16:08:44.071Z,96835.44
2024-04-18T16:11:10.823Z,96826.41
2024-04-18T16:13:40.168Z,96827.47
2024-04-18T16:16:09.809Z,96833.88
2024-04-18T16:18:42.000Z,96838.19
2024-04-18T16:21:11.863Z,96835.44
2024-04-18T16:23:41.599Z,96834.13
2024-04-18T16:26:10.940Z,96839.72
2024-04-18T16:28:42.555Z,96838.81
2024-04-18T16:31:09.385Z,96837.03
2024-04-18T16:33:41.388Z,96834.72
2024-04-18T16:36:17.892Z,96842.38
2024-04-18T16:38:53.748Z,96847.91
2024-04-18T16:41:23.494Z,96838.56
2024-04-18T16:43:52.801Z,96847.13
2024-04-18T16:46:22.172Z,96849.88
2024-04-18T16:48:54.516Z,96851.22
2024-04-18T16:51:24.031Z,96852.97
2024-04-18T16:53:55.343Z,96837.06
2024-04-18T16:56:25.584Z,96869.00
2024-04-18T16:58:55.088Z,96865.47
2024-04-18T17:01:24.603Z,96858.91
2024-04-18T17:03:56.845Z,96874.03
2024-04-18T17:06:35.151Z,96878.31
2024-04-18T17:09:10.385Z,96885.03
2024-04-18T17:11:39.735Z,96890.09
2024-04-18T17:14:09.107Z,96889.44
2024-04-18T17:16:38.579Z,96897.81
2024-04-18T17:19:10.641Z,96899.25
2024-04-18T17:21:42.701Z,96896.19
2024-04-18T17:24:12.123Z,96870.94
2024-04-18T17:26:41.491Z,96901.44
2024-04-18T17:29:10.887Z,96907.88
2024-04-18T17:31:40.890Z,96915.28
2024-04-18T17:34:14.250Z,96913.06
2024-04-18T17:36:43.640Z,96918.41
2024-04-18T17:39:13.229Z,96921.34
2024-04-18T17:41:42.610Z,96917.28
2024-04-18T17:44:12.010Z,96913.25
2024-04-18T17:46:42.152Z,96913.66
2024-04-18T17:49:14.310Z,96912.66
2024-04-18T17:51:43.715Z,96913.50
2024-04-18T17:54:13.267Z,96925.81
2024-04-18T17:56:42.609Z,96915.38
2024-04-18T17:59:13.078Z,96921.72
2024-04-18T18:01:44.047Z,96926.63
2024-04-18T18:04:17.532Z,96926.84
2024-04-18T18:06:47.145Z,96932.63
2024-04-18T18:09:16.654Z,96941.44
2024-04-18T18:11:46.174Z,96946.59
2024-04-18T18:14:15.662Z,96949.66
2024-04-18T18:16:44.996Z,96941.25
2024-04-18T18:19:17.224Z,96940.66
2024-04-18T18:21:46.723Z,96947.22
2024-04-18T18:24:16.235Z,96934.56
2024-04-18T18:26:45.799Z,96955.66
2024-04-18T18:29:12.612Z,96951.00
2024-04-18T18:31:42.495Z,96945.25
2024-04-18T18:34:11.211Z,96962.25
2024-04-18T18:36:43.295Z,96965.13
2024-04-18T18:39:10.201Z,96971.28
2024-04-18T18:41:40.020Z,96979.88
2024-04-18T18:44:07.742Z,96980.91
2024-04-18T18:46:37.112Z,96986.84
2024-04-18T18:49:04.012Z,96985.41
2024-04-18T18:51:34.801Z,96985.78
2024-04-18T18:54:04.565Z,96984.34
2024-04-18T18:56:33.906Z,96992.75
2024-04-18T18:59:00.677Z,96990.47
2024-04-18T19:01:30.013Z,96998.88
2024-04-18T19:03:56.911Z,97002.72
2024-04-18T19:06:27.203Z,96997.19
2024-04-18T19:08:56.885Z,97002.94
2024-04-18T19:11:29.091Z,97001.88
2024-04-18T19:13:56.169Z,97006.97
2024-04-18T19:16:25.521Z,96998.16
2024-04-18T19:18:52.408Z,97003.50
2024-04-18T19:21:22.056Z,97010.03
2024-04-18T19:23:48.945Z,97011.03
2024-04-18T19:26:19.869Z,97019.44
2024-04-18T19:28:49.322Z,97026.38
2024-04-18T19:31:20.750Z,97026.38
2024-04-18T19:33:47.665Z,97025.78
2024-04-18T19:36:17.281Z,97032.34
2024-04-18T19:38:45.808Z,97019.47
2024-04-18T19:41:15.216Z,97015.59
2024-04-18T19:43:41.989Z,97015.38
2024-04-18T19:46:13.958Z,97024.78
2024-04-18T19:48:40.826Z,97028.03
2024-04-18T19:51:10.449Z,97022.34
2024-04-18T19:53:37.591Z,97027.66
2024-04-18T19:56:07.519Z,97037.06
2024-04-18T19:58:34.297Z,97033.97
2024-04-18T20:01:06.421Z,97040.09
2024-04-18T20:03:36.553Z,97042.97
2024-04-18T20:06:06.289Z,97037.25
2024-04-18T20:08:33.098Z,97039.28
2024-04-18T20:11:02.630Z,97053.00
2024-04-18T20:13:29.466Z,97051.59
2024-04-18T20:15:58.946Z,97054.66
2024-04-18T20:18:25.820Z,97015.59
2024-04-18T20:20:57.884Z,97038.09
2024-04-18T20:23:24.778Z,97040.75
2024-04-18T20:25:54.322Z,97034.41
2024-04-18T20:28:21.140Z,97037.28
2024-04-18T20:30:50.625Z,97036.84
2024-04-18T20:33:17.490Z,97039.91
2024-04-18T20:35:46.999Z,97040.50
2024-04-18T20:38:16.381Z,97034.34
2024-04-18T20:40:45.819Z,97050.31
2024-04-18T20:43:12.576Z,97050.06
2024-04-18T20:45:41.951Z,97051.50
2024-04-18T20:48:09.088Z,97046.16
2024-04-18T20:50:38.681Z,97030.16
2024-04-18T20:53:05.694Z,97050.88
2024-04-18T20:55:37.682Z,97050.03
2024-04-18T20:58:05.066Z,97050.03
2024-04-18T21:00:34.549Z,97050.88
2024-04-18T21:03:01.497Z,97042.47
2024-04-18T21:05:30.973Z,97054.56
2024-04-18T21:07:57.832Z,97051.28
2024-04-18T21:10:27.395Z,97052.13
2024-04-18T21:12:56.930Z,97048.41
2024-04-18T21:15:26.528Z,97051.25
2024-04-18T21:17:55.122Z,97056.97
2024-04-18T21:20:24.680Z,97066.16
2024-04-18T21:22:54.712Z,97061.69
2024-04-18T21:25:24.406Z,97066.16
2024-04-18T21:27:51.417Z,97058.19
2024-04-18T21:30:23.654Z,97055.53
2024-04-18T21:32:53.524Z,97059.81
2024-04-18T21:35:23.615Z,97053.28
2024-04-18T21:37:50.503Z,97059.03
2024-04-18T21:40:20.048Z,97059.63
2024-04-18T21:42:46.977Z,97058.00
2024-04-18T21:45:16.484Z,97057.81
2024-04-18T21:47:46.139Z,97054.31
2024-04-18T21:50:15.733Z,97054.78
2024-04-18T21:52:42.615Z,97050.69
2024-04-18T21:55:15.391Z,97049.66
2024-04-18T21:57:42.721Z,97049.25
2024-04-18T22:00:13.087Z,97055.38
2024-04-18T22:02:40.019Z,97047.78
2024-04-18T22:05:12.494Z,97037.16
2024-04-18T22:07:39.340Z,97044.34
2024-04-18T22:10:10.259Z,97045.78
2024-04-18T22:12:37.185Z,97040.84
2024-04-18T22:15:07.313Z,97044.28
2024-04-18T22:17:36.812Z,97032.22
2024-04-18T22:20:03.933Z,97035.31
2024-04-18T22:22:36.028Z,97036.97
2024-04-18T22:25:02.877Z,97035.31
2024-04-18T22:27:32.327Z,97040.59
2024-04-18T22:29:59.214Z,97031.19
2024-04-18T22:32:28.749Z,97035.28
2024-04-18T22:34:56.524Z,97037.72
2024-04-18T22:37:26.027Z,97030.72
2024-04-18T22:39:55.510Z,97040.38
2024-04-18T22:42:25.003Z,97045.47
2024-04-18T22:44:51.881Z,97045.22
2024-04-18T22:47:21.348Z,97041.56
2024-04-18T22:49:48.241Z,97042.19
2024-04-18T22:52:17.699Z,97038.56
2024-04-18T22:54:44.722Z,97042.41
2024-04-18T22:57:17.046Z,97044.44
2024-04-18T22:59:46.455Z,97028.53
2024-04-18T23:02:16.483Z,97036.50
2024-04-18T23:04:43.489Z,97035.69
2024-04-18T23:07:13.375Z,97028.34
2024-04-18T23:09:40.337Z,97038.59
2024-04-18T23:12:10.187Z,97030.81
2024-04-18T23:14:39.551Z,97035.72
2024-04-18T23:17:09.048Z,97031.66
2024-04-18T23:19:35.925Z,97035.31
2024-04-18T23:22:06.650Z,97038.19
2024-04-18T23:24:33.637Z,97029.38
2024-04-18T23:27:03.111Z,97034.69
2024-04-18T23:29:30.766Z,97030.38
2024-04-18T23:32:02.935Z,97034.88
2024-04-18T23:34:29.819Z,97033.84
2024-04-18T23:36:59.313Z,97020.81
2024-04-18T23:39:26.178Z,97023.69
2024-04-18T23:41:55.628Z,97012.59
2024-04-18T23:44:22.527Z,97010.56
2024-04-18T23:46:52.028Z,97017.72
2024-04-18T23:49:21.527Z,97016.47
2024-04-18T23:51:50.991Z,97023.41
2024-04-18T23:54:18.912Z,97010.50
2024-04-18T23:56:48.373Z,97010.31
2024-04-18T23:59:15.276Z,97006.44
